createdAt,value
2022-07-27T00:01:43.928Z,14.40
2022-07-27T00:04:39.894Z,14.30
2022-07-27T00:07:08.369Z,14.20
2022-07-27T00:09:48.158Z,14.20
2022-07-27T00:12:32.257Z,14.20
2022-07-27T00:15:18.394Z,14.20
2022-07-27T00:17:46.928Z,14.20
2022-07-27T00:20:31.462Z,14.00
2022-07-27T00:23:06.067Z,13.90
2022-07-27T00:25:38.794Z,13.90
2022-07-27T00:28:18.283Z,13.90
2022-07-27T00:30:56.590Z,13.80
2022-07-27T00:33:40.296Z,13.80
2022-07-27T00:36:17.835Z,13.70
2022-07-27T00:38:52.846Z,13.70
2022-07-27T00:41:29.200Z,13.70
2022-07-27T00:43:59.205Z,13.70
2022-07-27T00:46:34.385Z,13.70
2022-07-27T00:49:17.407Z,13.70
2022-07-27T00:51:46.154Z,13.60
2022-07-27T00:54:29.141Z,13.60
2022-07-27T00:56:59.608Z,13.50
2022-07-27T00:59:29.002Z,13.50
2022-07-27T01:02:04.497Z,13.50
2022-07-27T01:04:53.701Z,13.40
2022-07-27T01:07:24.485Z,13.40
2022-07-27T01:09:58.220Z,13.40
2022-07-27T01:12:37.229Z,13.40
2022-07-27T01:15:07.143Z,13.40
2022-07-27T01:17:43.275Z,13.30
2022-07-27T01:20:12.326Z,13.30
2022-07-27T01:22:42.147Z,13.30
2022-07-27T01:25:17.996Z,13.30
2022-07-27T01:27:55.327Z,13.20
2022-07-27T01:30:31.897Z,13.20
2022-07-27T01:33:09.069Z,13.10
2022-07-27T01:35:39.269Z,13.10
2022-07-27T01:38:43.076Z,13.20
2022-07-27T01:41:22.883Z,13.10
2022-07-27T01:44:05.278Z,13.10
2022-07-27T01:46:45.807Z,13.10
2022-07-27T01:49:25.733Z,13.10
2022-07-27T01:51:54.317Z,13.10
2022-07-27T01:54:52.083Z,13.10
2022-07-27T01:57:38.337Z,13.00
2022-07-27T02:00:25.207Z,13.00
2022-07-27T02:03:24.185Z,13.00
2022-07-27T02:06:06.885Z,13.00
2022-07-27T02:08:49.252Z,13.00
2022-07-27T02:11:37.434Z,13.00
2022-07-27T02:14:10.090Z,13.00
2022-07-27T02:16:46.726Z,13.10
2022-07-27T02:19:45.127Z,13.10
2022-07-27T02:22:28.014Z,13.10
2022-07-27T02:25:17.436Z,13.10
2022-07-27T02:27:54.552Z,13.10
2022-07-27T02:30:29.551Z,13.00
2022-07-27T02:33:25.728Z,12.90
2022-07-27T02:35:55.115Z,12.90
2022-07-27T02:38:26.080Z,12.90
2022-07-27T02:40:54.584Z,12.90
2022-07-27T02:43:31.429Z,12.90
2022-07-27T02:46:49.666Z,12.90
2022-07-27T02:49:42.972Z,12.90
2022-07-27T02:52:28.699Z,12.90
2022-07-27T02:55:04.970Z,12.90
2022-07-27T02:57:41.406Z,12.90
2022-07-27T03:00:14.075Z,12.90
2022-07-27T03:02:57.474Z,12.90
2022-07-27T03:05:33.701Z,12.80
2022-07-27T03:08:30.958Z,12.90
2022-07-27T03:11:35.484Z,12.80
2022-07-27T03:14:07.826Z,12.80
2022-07-27T03:17:31.701Z,12.80
2022-07-27T03:20:49.850Z,12.80
2022-07-27T03:23:34.611Z,12.80
2022-07-27T03:26:03.003Z,12.80
2022-07-27T03:28:55.095Z,12.80
2022-07-27T03:31:38.458Z,12.80
2022-07-27T03:34:20.061Z,12.80
2022-07-27T03:37:05.852Z,12.70
2022-07-27T03:39:38.736Z,12.70
2022-07-27T03:42:13.174Z,12.70
2022-07-27T03:44:41.493Z,12.70
2022-07-27T03:47:16.107Z,12.60
2022-07-27T03:49:49.034Z,12.60
2022-07-27T03:52:24.602Z,12.60
2022-07-27T03:54:57.429Z,12.60
2022-07-27T03:58:03.930Z,12.50
2022-07-27T04:00:42.807Z,12.60
2022-07-27T04:03:11.480Z,12.60
2022-07-27T04:05:42.912Z,12.60
2022-07-27T04:08:24.200Z,12.60
2022-07-27T04:11:03.226Z,12.60
2022-07-27T04:13:33.664Z,12.60
2022-07-27T04:16:10.737Z,12.50
2022-07-27T04:18:53.516Z,12.50
2022-07-27T04:21:33.847Z,12.50
2022-07-27T04:24:06.014Z,12.50
2022-07-27T04:27:00.837Z,12.50
2022-07-27T04:29:40.147Z,12.60
2022-07-27T04:32:34.452Z,12.60
2022-07-27T04:35:09.168Z,12.60
2022-07-27T04:38:02.515Z,12.60
2022-07-27T04:40:43.185Z,12.60
2022-07-27T04:43:29.778Z,12.70
2022-07-27T04:46:13.191Z,12.90
2022-07-27T04:48:49.726Z,13.00
2022-07-27T04:51:29.018Z,13.10
2022-07-27T04:54:01.080Z,13.00
2022-07-27T04:56:51.895Z,12.90
2022-07-27T04:59:33.324Z,12.90
2022-07-27T05:02:02.788Z,12.90
2022-07-27T05:04:41.748Z,12.90
2022-07-27T05:07:12.461Z,13.00
2022-07-27T05:09:53.397Z,12.90
2022-07-27T05:12:40.529Z,12.90
2022-07-27T05:15:29.000Z,13.00
2022-07-27T05:18:31.908Z,13.10
2022-07-27T05:21:03.120Z,13.20
2022-07-27T05:23:35.192Z,13.30
2022-07-27T05:26:28.766Z,13.40
2022-07-27T05:29:04.544Z,13.40
2022-07-27T05:31:35.754Z,13.40
2022-07-27T05:34:08.682Z,13.50
2022-07-27T05:36:37.558Z,13.60
2022-07-27T05:39:13.976Z,13.70
2022-07-27T05:41:43.466Z,13.90
2022-07-27T05:44:12.041Z,14.30
2022-07-27T05:46:42.109Z,14.50
2022-07-27T05:49:16.041Z,14.90
2022-07-27T05:51:45.075Z,15.10
2022-07-27T05:54:14.690Z,15.40
2022-07-27T05:56:55.410Z,15.70
2022-07-27T05:59:39.375Z,15.60
2022-07-27T06:02:32.048Z,15.30
2022-07-27T06:05:13.202Z,15.00
2022-07-27T06:08:00.258Z,15.60
2022-07-27T06:10:51.883Z,17.00
2022-07-27T06:13:26.647Z,18.40
2022-07-27T06:16:14.047Z,18.20
2022-07-27T06:18:54.346Z,17.80
2022-07-27T06:21:24.457Z,17.30
2022-07-27T06:23:57.212Z,17.70
2022-07-27T06:26:26.024Z,17.90
2022-07-27T06:29:14.574Z,18.00
2022-07-27T06:31:49.739Z,17.80
2022-07-27T06:34:26.075Z,17.70
2022-07-27T06:37:01.785Z,17.70
2022-07-27T06:39:46.753Z,18.00
2022-07-27T06:42:27.581Z,17.90
2022-07-27T06:44:56.795Z,18.00
2022-07-27T06:47:28.755Z,18.10
2022-07-27T06:49:59.353Z,17.90
2022-07-27T06:52:29.251Z,17.90
2022-07-27T06:54:59.827Z,18.10
2022-07-27T06:57:29.474Z,18.00
2022-07-27T07:00:04.580Z,18.10
2022-07-27T07:02:40.549Z,17.90
2022-07-27T07:05:12.006Z,17.90
2022-07-27T07:07:41.659Z,18.30
2022-07-27T07:10:12.701Z,18.50
2022-07-27T07:12:41.353Z,18.50
2022-07-27T07:15:20.020Z,18.20
2022-07-27T07:17:49.935Z,18.60
2022-07-27T07:20:28.865Z,19.00
2022-07-27T07:22:57.747Z,18.90
2022-07-27T07:25:26.545Z,18.80
2022-07-27T07:28:22.633Z,18.70
2022-07-27T07:31:20.763Z,18.90
2022-07-27T07:34:08.771Z,19.00
2022-07-27T07:37:03.775Z,19.20
2022-07-27T07:39:34.997Z,19.50
2022-07-27T07:42:17.964Z,19.70
2022-07-27T07:44:47.839Z,19.30
2022-07-27T07:47:17.675Z,19.40
2022-07-27T07:49:54.315Z,19.50
2022-07-27T07:52:44.465Z,20.00
2022-07-27T07:55:27.767Z,19.80
2022-07-27T07:58:14.400Z,19.60
2022-07-27T08:00:54.226Z,20.50
2022-07-27T08:03:40.641Z,20.70
2022-07-27T08:06:17.408Z,20.20
2022-07-27T08:08:48.055Z,20.10
2022-07-27T08:11:36.939Z,19.70
2022-07-27T08:14:06.868Z,19.50
2022-07-27T08:16:43.770Z,19.50
2022-07-27T08:19:40.220Z,20.20
2022-07-27T08:22:18.190Z,20.90
2022-07-27T08:24:51.235Z,21.20
2022-07-27T08:27:30.767Z,21.40
2022-07-27T08:30:12.088Z,21.40
2022-07-27T08:33:07.244Z,20.80
2022-07-27T08:35:46.511Z,20.20
2022-07-27T08:38:17.528Z,19.60
2022-07-27T08:40:53.612Z,19.20
2022-07-27T08:43:27.008Z,18.90
2022-07-27T08:46:23.437Z,18.90
2022-07-27T08:48:52.761Z,18.70
2022-07-27T08:51:25.413Z,18.60
2022-07-27T08:54:10.694Z,18.50
2022-07-27T08:56:59.510Z,18.90
2022-07-27T09:00:03.931Z,19.70
2022-07-27T09:02:41.352Z,20.00
2022-07-27T09:05:18.311Z,20.60
2022-07-27T09:07:53.181Z,21.00
2022-07-27T09:10:39.338Z,21.60
2022-07-27T09:13:29.651Z,21.50
2022-07-27T09:16:19.302Z,21.90
2022-07-27T09:19:08.066Z,21.90
2022-07-27T09:21:49.018Z,21.90
2022-07-27T09:24:45.452Z,22.50
2022-07-27T09:27:11.212Z,22.60
2022-07-27T09:30:04.890Z,22.90
2022-07-27T09:32:56.294Z,23.10
2022-07-27T09:35:27.775Z,23.20
2022-07-27T09:38:19.542Z,23.10
2022-07-27T09:41:02.617Z,22.90
2022-07-27T09:46:41.951Z,23.20
2022-07-27T09:49:29.454Z,22.90
2022-07-27T09:52:01.083Z,23.10
2022-07-27T09:54:45.669Z,23.50
2022-07-27T09:57:17.189Z,23.90
2022-07-27T09:59:47.201Z,22.40
2022-07-27T10:02:17.752Z,22.30
2022-07-27T10:04:49.392Z,22.30
2022-07-27T10:07:22.715Z,22.10
2022-07-27T10:09:53.807Z,21.90
2022-07-27T10:12:36.787Z,21.90
2022-07-27T10:15:11.733Z,21.80
2022-07-27T10:17:46.410Z,21.90
2022-07-27T10:20:20.151Z,22.10
2022-07-27T10:23:07.787Z,23.10
2022-07-27T10:25:46.565Z,23.60
2022-07-27T10:28:29.330Z,23.10
2022-07-27T10:31:18.253Z,23.00
2022-07-27T10:34:04.178Z,23.20
2022-07-27T10:36:56.892Z,23.20
2022-07-27T10:39:43.349Z,22.60
2022-07-27T10:42:30.639Z,23.10
2022-07-27T10:45:11.135Z,24.20
2022-07-27T10:47:42.489Z,24.80
2022-07-27T10:50:56.428Z,24.80
2022-07-27T10:54:09.403Z,23.60
2022-07-27T10:56:47.558Z,24.60
2022-07-27T11:02:53.226Z,22.70
2022-07-27T11:05:58.406Z,23.30
2022-07-27T11:08:36.628Z,22.60
2022-07-27T11:11:39.640Z,22.40
2022-07-27T11:14:15.060Z,21.90
2022-07-27T11:19:32.233Z,21.70
2022-07-27T11:22:04.885Z,21.60
2022-07-27T11:24:58.115Z,21.50
2022-07-27T11:27:49.666Z,21.60
2022-07-27T11:30:29.028Z,21.70
2022-07-27T11:32:58.794Z,21.40
2022-07-27T11:35:28.780Z,21.50
2022-07-27T11:38:06.391Z,21.30
2022-07-27T11:41:15.212Z,21.20
2022-07-27T11:43:55.805Z,22.60
2022-07-27T11:46:28.259Z,23.80
2022-07-27T11:49:07.468Z,22.90
2022-07-27T11:51:38.727Z,23.70
2022-07-27T11:54:16.224Z,24.20
2022-07-27T11:56:50.327Z,24.40
2022-07-27T11:59:21.934Z,22.80
2022-07-27T12:01:57.127Z,22.30
2022-07-27T12:04:34.300Z,22.60
2022-07-27T12:07:08.613Z,22.60
2022-07-27T12:09:40.898Z,22.80
2022-07-27T12:12:18.957Z,22.30
2022-07-27T12:14:53.225Z,22.50
2022-07-27T12:17:36.725Z,23.10
2022-07-27T12:20:17.806Z,24.80
2022-07-27T12:22:49.290Z,25.70
2022-07-27T12:25:30.122Z,26.00
2022-07-27T12:28:12.752Z,25.00
2022-07-27T12:30:59.251Z,23.80
2022-07-27T12:33:37.510Z,23.40
2022-07-27T12:36:13.398Z,23.30
2022-07-27T12:38:53.556Z,23.50
2022-07-27T12:41:38.365Z,23.10
2022-07-27T12:44:12.390Z,23.30
2022-07-27T12:46:55.092Z,22.80
2022-07-27T12:49:35.669Z,23.00
2022-07-27T12:52:17.779Z,22.90
2022-07-27T12:54:48.690Z,23.80
2022-07-27T12:57:39.596Z,24.20
2022-07-27T13:00:13.034Z,23.80
2022-07-27T13:02:48.243Z,23.30
2022-07-27T13:05:19.527Z,23.00
2022-07-27T13:07:49.084Z,22.50
2022-07-27T13:10:22.913Z,22.20
2022-07-27T13:12:57.309Z,22.00
2022-07-27T13:15:28.914Z,22.00
2022-07-27T13:17:58.617Z,21.90
2022-07-27T13:20:33.415Z,21.70
2022-07-27T13:23:10.395Z,21.80
2022-07-27T13:25:43.260Z,21.80
2022-07-27T13:28:15.130Z,21.80
2022-07-27T13:31:01.193Z,21.50
2022-07-27T13:33:47.218Z,21.70
2022-07-27T13:36:33.112Z,21.80
2022-07-27T13:39:25.143Z,21.80
2022-07-27T13:42:08.137Z,22.00
2022-07-27T13:45:12.945Z,21.90
2022-07-27T13:48:12.508Z,22.30
2022-07-27T13:50:42.546Z,22.20
2022-07-27T13:53:15.164Z,21.80
2022-07-27T13:56:14.257Z,22.10
2022-07-27T13:58:50.366Z,22.20
2022-07-27T14:01:36.439Z,22.60
2022-07-27T14:04:18.491Z,22.50
2022-07-27T14:06:59.430Z,22.30
2022-07-27T14:09:48.298Z,22.40
2022-07-27T14:12:26.745Z,22.20
2022-07-27T14:14:57.338Z,22.20
2022-07-27T14:17:33.870Z,22.70
2022-07-27T14:20:10.132Z,22.80
2022-07-27T14:22:40.695Z,23.20
2022-07-27T14:25:11.886Z,24.00
2022-07-27T14:27:44.640Z,24.40
2022-07-27T14:30:20.716Z,24.50
2022-07-27T14:33:03.156Z,25.70
2022-07-27T14:35:40.769Z,25.20
2022-07-27T14:38:10.860Z,25.40
2022-07-27T14:40:53.372Z,25.40
2022-07-27T14:43:30.632Z,25.30
2022-07-27T14:46:24.068Z,25.60
2022-07-27T14:49:06.027Z,25.40
2022-07-27T14:51:48.782Z,25.20
2022-07-27T14:54:17.426Z,24.90
2022-07-27T14:56:55.888Z,24.10
2022-07-27T14:59:27.389Z,24.10
2022-07-27T15:02:03.143Z,24.20
2022-07-27T15:04:47.547Z,24.00
2022-07-27T15:07:28.472Z,23.50
2022-07-27T15:10:16.589Z,23.20
2022-07-27T15:12:47.495Z,23.10
2022-07-27T15:15:39.009Z,22.80
2022-07-27T15:18:36.392Z,22.70
2022-07-27T15:21:18.808Z,22.70
2022-07-27T15:23:53.101Z,22.80
2022-07-27T15:26:35.732Z,22.70
2022-07-27T15:29:36.756Z,22.60
2022-07-27T15:32:07.433Z,22.90
2022-07-27T15:34:38.046Z,22.90
2022-07-27T15:37:12.006Z,22.90
2022-07-27T15:39:47.284Z,23.20
2022-07-27T15:42:43.099Z,23.10
2022-07-27T15:45:28.920Z,22.70
2022-07-27T15:48:23.309Z,23.10
2022-07-27T15:51:31.336Z,22.90
2022-07-27T15:54:24.390Z,22.40
2022-07-27T15:57:04.466Z,22.50
2022-07-27T15:59:35.054Z,22.40
2022-07-27T16:02:11.003Z,22.10
2022-07-27T16:04:46.443Z,22.10
2022-07-27T16:07:17.106Z,22.20
2022-07-27T16:09:53.978Z,22.00
2022-07-27T16:12:27.097Z,22.00
2022-07-27T16:15:09.038Z,21.90
2022-07-27T16:17:43.498Z,21.60
2022-07-27T16:20:34.973Z,21.90
2022-07-27T16:23:28.099Z,22.00
2022-07-27T16:26:07.024Z,21.80
2022-07-27T16:28:54.408Z,22.10
2022-07-27T16:31:38.067Z,21.90
2022-07-27T16:34:16.088Z,22.00
2022-07-27T16:36:51.178Z,21.90
2022-07-27T16:39:20.135Z,22.00
2022-07-27T16:42:20.637Z,22.10
2022-07-27T16:44:51.873Z,21.90
2022-07-27T16:47:20.458Z,21.90
2022-07-27T16:50:09.515Z,21.80
2022-07-27T16:52:53.655Z,21.70
2022-07-27T16:55:58.283Z,21.90
2022-07-27T16:58:51.751Z,21.60
2022-07-27T17:01:59.549Z,21.70
2022-07-27T17:04:31.732Z,21.60
2022-07-27T17:07:35.205Z,21.80
2022-07-27T17:10:06.653Z,21.70
2022-07-27T17:12:48.073Z,21.70
2022-07-27T17:15:24.444Z,21.60
2022-07-27T17:18:00.572Z,21.50
2022-07-27T17:21:07.336Z,21.60
2022-07-27T17:23:49.227Z,21.40
2022-07-27T17:30:15.589Z,21.30
2022-07-27T17:32:57.323Z,21.20
2022-07-27T17:35:39.706Z,21.00
2022-07-27T17:38:26.853Z,20.90
2022-07-27T17:41:08.109Z,20.50
2022-07-27T17:43:38.962Z,20.50
2022-07-27T17:46:14.176Z,20.70
2022-07-27T17:49:47.093Z,20.40
2022-07-27T17:53:11.494Z,20.00
2022-07-27T17:56:15.038Z,19.80
2022-07-27T17:59:37.081Z,19.90
2022-07-27T18:02:09.313Z,19.80
2022-07-27T18:04:52.855Z,20.00
2022-07-27T18:07:28.088Z,19.90
2022-07-27T18:10:13.030Z,19.80
2022-07-27T18:13:00.081Z,19.80
2022-07-27T18:15:51.217Z,19.70
2022-07-27T18:18:33.183Z,19.70
2022-07-27T18:21:04.516Z,19.70
2022-07-27T18:23:41.534Z,19.80
2022-07-27T18:26:13.200Z,19.50
2022-07-27T18:28:59.129Z,19.40
2022-07-27T18:31:33.488Z,19.30
2022-07-27T18:34:12.448Z,19.50
2022-07-27T18:37:08.077Z,19.60
2022-07-27T18:39:38.502Z,19.50
2022-07-27T18:42:13.646Z,19.50
2022-07-27T18:45:34.711Z,19.60
2022-07-27T18:48:46.341Z,19.50
2022-07-27T18:51:30.207Z,19.30
2022-07-27T18:54:06.982Z,19.30
2022-07-27T18:57:04.279Z,19.30
2022-07-27T18:59:54.421Z,19.20
2022-07-27T19:02:39.813Z,19.20
2022-07-27T19:05:40.616Z,19.40
2022-07-27T19:08:29.999Z,19.30
2022-07-27T19:11:09.790Z,19.30
2022-07-27T19:13:56.410Z,19.10
2022-07-27T19:16:38.748Z,19.10
2022-07-27T19:19:40.125Z,19.00
2022-07-27T19:22:22.526Z,18.90
2022-07-27T19:25:22.588Z,18.80
2022-07-27T19:28:12.119Z,18.80
2022-07-27T19:31:00.790Z,18.70
2022-07-27T19:33:57.082Z,18.60
2022-07-27T19:37:44.915Z,18.60
2022-07-27T19:40:49.355Z,18.50
2022-07-27T19:43:38.489Z,18.40
2022-07-27T19:47:00.731Z,18.30
2022-07-27T19:50:10.899Z,18.30
2022-07-27T19:56:39.421Z,18.00
2022-07-27T19:59:57.189Z,17.90
2022-07-27T20:03:21.227Z,17.90
2022-07-27T20:06:28.837Z,17.90
2022-07-27T20:17:02.777Z,17.60
2022-07-27T20:20:48.117Z,17.50
2022-07-27T20:24:20.478Z,17.40
2022-07-27T20:39:25.409Z,17.00
2022-07-27T20:42:40.301Z,16.90
2022-07-27T20:55:47.551Z,16.70
2022-07-27T20:58:21.513Z,16.70
2022-07-27T21:01:04.159Z,16.60
2022-07-27T21:03:34.727Z,16.50
2022-07-27T21:06:05.661Z,16.50
2022-07-27T21:08:51.370Z,16.50
2022-07-27T21:11:25.349Z,16.40
2022-07-27T21:14:14.770Z,16.50
2022-07-27T21:16:45.596Z,16.50
2022-07-27T21:19:15.212Z,16.50
2022-07-27T21:22:40.703Z,16.50
2022-07-27T21:25:45.880Z,16.30
2022-07-27T21:29:26.991Z,16.10
2022-07-27T21:32:08.187Z,16.10
2022-07-27T21:34:45.789Z,16.10
2022-07-27T21:37:30.957Z,16.00
2022-07-27T21:40:25.165Z,16.10
2022-07-27T21:43:13.169Z,16.00
2022-07-27T21:45:49.458Z,15.90
2022-07-27T21:48:23.650Z,15.80
2022-07-27T21:51:00.989Z,15.80
2022-07-27T21:53:29.620Z,15.70
2022-07-27T21:55:58.443Z,15.50
2022-07-27T21:58:27.445Z,15.70
2022-07-27T22:00:56.880Z,15.80
2022-07-27T22:03:41.650Z,15.70
2022-07-27T22:06:15.776Z,15.70
2022-07-27T22:08:46.437Z,15.80
2022-07-27T22:11:17.060Z,15.60
2022-07-27T22:13:57.881Z,15.80
2022-07-27T22:16:49.546Z,15.70
2022-07-27T22:19:20.624Z,15.50
2022-07-27T22:21:57.109Z,15.60
2022-07-27T22:24:27.577Z,15.50
2022-07-27T22:27:05.965Z,15.50
2022-07-27T22:29:37.018Z,15.50
2022-07-27T22:32:16.660Z,15.40
2022-07-27T22:34:48.879Z,15.50
2022-07-27T22:37:39.222Z,15.50
2022-07-27T22:40:49.071Z,15.40
2022-07-27T22:43:33.347Z,15.30
2022-07-27T22:46:10.234Z,15.40
2022-07-27T22:48:42.688Z,15.30
2022-07-27T22:51:49.490Z,15.20
2022-07-27T22:54:17.907Z,15.30
2022-07-27T22:56:53.598Z,15.20
2022-07-27T22:59:30.997Z,15.20
2022-07-27T23:02:09.615Z,15.20
2022-07-27T23:04:39.139Z,15.30
2022-07-27T23:07:09.240Z,15.20
2022-07-27T23:09:47.088Z,15.00
2022-07-27T23:12:29.660Z,15.10
2022-07-27T23:15:11.913Z,15.20
2022-07-27T23:17:41.862Z,15.10
2022-07-27T23:20:29.010Z,15.10
2022-07-27T23:23:00.940Z,14.90
2022-07-27T23:25:36.543Z,14.90
2022-07-27T23:28:19.097Z,14.80
2022-07-27T23:30:51.453Z,14.80
2022-07-27T23:33:35.718Z,14.80
2022-07-27T23:36:17.566Z,14.80
2022-07-27T23:39:02.963Z,14.70
2022-07-27T23:41:53.223Z,14.80
2022-07-27T23:44:22.802Z,14.80
2022-07-27T23:46:51.726Z,14.80
2022-07-27T23:49:20.805Z,15.00
2022-07-27T23:52:07.886Z,14.90
2022-07-27T23:54:57.495Z,14.70
2022-07-27T23:57:26.183Z,14.60
